Time;durP1;ratioP1;P1;durP2;ratioP2;P2;SDS_P1;SDS_P2;PMS_P1;PMS_P2;Temp;Humidity;BMP_temperature;BMP_pressure;BME280_temperature;BME280_humidity;BME280_pressure;Samples;Min_cycle;Max_cycle;Signal;HPM_P1;HPM_P2
2023/04/23 00:08:03;;;;;;;;;;;;;;;10.84;100.00;97321.69;18295365;32;19942;-57
2023/04/23 00:18:05;;;;;;;;;;;;;;;10.87;100.00;97308.69;18294894;32;19945;-57
2023/04/23 00:28:08;;;;;;;;;;;;;;;10.84;100.00;97312.78;18294376;32;19942;-57
2023/04/23 00:38:10;;;;;;;;;;;;;;;10.80;100.00;97312.50;18303483;32;19949;-57
2023/04/23 00:48:12;;;;;;;;;;;;;;;10.73;100.00;97312.03;18304703;32;19979;-57
2023/04/23 00:58:14;;;;;;;;;;;;;;;10.62;100.00;97311.28;18304415;32;19993;-57
2023/04/23 01:08:17;;;;;;;;;;;;;;;10.54;100.00;97313.72;18304137;32;19985;-57
2023/04/23 01:18:20;;;;;;;;;;;;;;;10.44;100.00;97311.91;18288945;32;19972;-57
2023/04/23 01:28:22;;;;;;;;;;;;;;;10.31;100.00;97300.56;18303004;32;19942;-57
2023/04/23 01:38:27;;;;;;;;;;;;;;;10.24;100.00;97296.56;18302366;32;19972;-57
2023/04/23 01:48:29;;;;;;;;;;;;;;;10.20;100.00;97287.41;18301443;32;19977;-57
2023/04/23 01:58:32;;;;;;;;;;;;;;;10.06;100.00;97279.87;18301514;32;19953;-57
2023/04/23 02:08:34;;;;;;;;;;;;;;;9.96;100.00;97280.75;18301086;32;19948;-57
2023/04/23 02:18:37;;;;;;;;;;;;;;;9.88;100.00;97288.56;18300531;32;19997;-57
2023/04/23 02:28:39;;;;;;;;;;;;;;;9.82;100.00;97299.38;18299947;32;20270;-57
2023/04/23 02:38:43;;;;;;;;;;;;;;;9.80;100.00;97274.56;18299606;32;19967;-57
2023/04/23 02:48:46;;;;;;;;;;;;;;;9.79;100.00;97277.53;18299210;32;20242;-57
2023/04/23 02:58:48;;;;;;;;;;;;;;;9.76;100.00;97294.31;18298253;32;19996;-57
2023/04/23 03:08:50;;;;;;;;;;;;;;;9.73;100.00;97290.25;18298096;32;19949;-57
2023/04/23 03:18:52;;;;;;;;;;;;;;;9.70;100.00;97274.56;18284282;32;19972;-57
2023/04/23 03:28:54;;;;;;;;;;;;;;;9.62;100.00;97267.03;18283432;32;20269;-57
2023/04/23 03:38:56;;;;;;;;;;;;;;;9.60;100.00;97274.63;18296435;32;19968;-57
2023/04/23 03:48:58;;;;;;;;;;;;;;;9.58;100.00;97272.19;18295961;32;19971;-57
2023/04/23 03:59:01;;;;;;;;;;;;;;;9.54;100.00;97275.69;18296228;32;19953;-57
2023/04/23 04:09:03;;;;;;;;;;;;;;;9.53;100.00;97279.50;18281540;32;19969;-56
2023/04/23 04:19:06;;;;;;;;;;;;;;;9.53;100.00;97263.31;18294823;32;19945;-57
2023/04/23 04:29:09;;;;;;;;;;;;;;;9.46;100.00;97272.47;18294753;32;20303;-57
2023/04/23 04:39:13;;;;;;;;;;;;;;;9.42;100.00;97263.31;18294158;32;19957;-57
2023/04/23 04:49:18;;;;;;;;;;;;;;;9.43;100.00;97264.94;18293393;32;19953;-57
2023/04/23 04:59:20;;;;;;;;;;;;;;;9.43;100.00;97250.63;18293362;32;20377;-57
2023/04/23 05:09:22;;;;;;;;;;;;;;;9.46;100.00;97258.97;18292919;32;20005;-57
2023/04/23 05:19:25;;;;;;;;;;;;;;;9.55;100.00;97266.53;18282907;32;20009;-57
2023/04/23 05:29:27;;;;;;;;;;;;;;;9.66;100.00;97268.09;18303016;32;19949;-57
2023/04/23 05:39:29;;;;;;;;;;;;;;;9.81;100.00;97253.75;18288588;32;19968;-57
2023/04/23 05:49:31;;;;;;;;;;;;;;;10.00;100.00;97245.88;18301749;32;19972;-57
2023/04/23 05:59:33;;;;;;;;;;;;;;;10.33;100.00;97241.66;18301335;32;19961;-57
2023/04/23 06:09:36;;;;;;;;;;;;;;;10.65;100.00;97245.81;18287606;32;19972;-57
2023/04/23 06:19:38;;;;;;;;;;;;;;;10.96;100.00;97234.78;18300186;32;19961;-57
2023/04/23 06:29:40;;;;;;;;;;;;;;;11.21;100.00;97224.84;18299091;32;19958;-57
2023/04/23 06:39:42;;;;;;;;;;;;;;;11.16;100.00;97214.03;18286386;32;19949;-57
2023/04/23 06:49:44;;;;;;;;;;;;;;;11.22;100.00;97191.25;18298637;32;19945;-57
2023/04/23 06:59:46;;;;;;;;;;;;;;;11.28;100.00;97206.34;18284268;32;19964;-57
2023/04/23 07:09:49;;;;;;;;;;;;;;;11.89;100.00;97179.66;18284834;32;19968;-57
2023/04/23 07:19:51;;;;;;;;;;;;;;;12.59;100.00;97169.25;18297578;32;19957;-57
2023/04/23 07:29:53;;;;;;;;;;;;;;;13.11;100.00;97180.84;18283270;32;19942;-57
2023/04/23 07:39:55;;;;;;;;;;;;;;;13.73;100.00;97158.81;18282381;32;20005;-57
2023/04/23 07:49:58;;;;;;;;;;;;;;;14.33;100.00;97153.44;18295790;32;20113;-57
2023/04/23 08:00:00;;;;;;;;;;;;;;;14.77;100.00;97145.66;18294869;32;19949;-57
2023/04/23 08:10:04;;;;;;;;;;;;;;;15.25;100.00;97134.06;18280385;32;19945;-57
2023/04/23 08:20:07;;;;;;;;;;;;;;;15.96;100.00;97132.38;18294419;32;19957;-57
2023/04/23 08:30:10;;;;;;;;;;;;;;;16.06;100.00;97118.44;18294094;32;19957;-57
2023/04/23 08:40:12;;;;;;;;;;;;;;;16.17;100.00;97106.09;18280127;32;19964;-57
2023/04/23 08:50:16;;;;;;;;;;;;;;;16.55;100.00;97101.91;18293129;32;19967;-57
2023/04/23 09:00:21;;;;;;;;;;;;;;;16.97;100.00;97088.53;18303201;32;19961;-57
2023/04/23 09:10:24;;;;;;;;;;;;;;;17.70;94.19;97086.75;18303826;32;19945;-57
2023/04/23 09:20:27;;;;;;;;;;;;;;;18.21;96.91;97075.78;18303534;32;20325;-57
2023/04/23 09:30:29;;;;;;;;;;;;;;;18.93;93.11;97056.44;18288250;32;19981;-57
2023/04/23 09:40:32;;;;;;;;;;;;;;;18.99;78.93;97043.31;18287767;32;20347;-57
2023/04/23 09:50:37;;;;;;;;;;;;;;;19.44;86.12;97036.94;18301581;32;19949;-57
2023/04/23 10:00:39;;;;;;;;;;;;;;;19.10;86.00;97025.28;18286531;32;20016;-57
2023/04/23 10:10:43;;;;;;;;;;;;;;;19.22;84.19;97006.09;18286525;32;19961;-57
2023/04/23 10:21:04;;;;;;;;;;;;;;;19.48;84.22;96983.81;18300265;32;19971;-58
2023/04/23 10:31:08;;;;;;;;;;;;;;;20.00;80.62;96966.91;18286006;32;19981;-57
2023/04/23 10:41:11;;;;;;;;;;;;;;;20.54;72.79;96944.44;18283962;32;20254;-58
2023/04/23 10:51:13;;;;;;;;;;;;;;;21.03;69.30;96926.00;18298312;32;19945;-57
2023/04/23 11:01:23;;;;;;;;;;;;;;;21.99;65.67;96913.56;18298249;32;19965;-57
2023/04/23 11:11:39;;;;;;;;;;;;;;;22.60;70.11;96897.34;18298301;32;19964;-57
2023/04/23 11:21:57;;;;;;;;;;;;;;;23.08;59.01;96874.03;18297211;32;20002;-58
2023/04/23 11:32:00;;;;;;;;;;;;;;;24.00;50.53;96878.41;18283087;32;20309;-58
2023/04/23 11:42:08;;;;;;;;;;;;;;;24.48;45.16;96845.31;18296549;32;19981;-58
2023/04/23 11:52:11;;;;;;;;;;;;;;;23.58;50.30;96844.38;18295775;32;19949;-57
2023/04/23 12:02:15;;;;;;;;;;;;;;;23.92;46.02;96838.87;18282034;32;19995;-57
2023/04/23 12:12:17;;;;;;;;;;;;;;;24.31;48.22;96826.59;18294938;32;20286;-58
2023/04/23 12:22:25;;;;;;;;;;;;;;;23.30;51.56;96834.59;18294281;32;19945;-57
2023/04/23 12:32:28;;;;;;;;;;;;;;;23.27;47.78;96810.53;18302044;32;19968;-58
2023/04/23 12:42:30;;;;;;;;;;;;;;;23.51;45.35;96808.44;18290749;32;19953;-58
2023/04/23 12:52:32;;;;;;;;;;;;;;;23.40;43.02;96808.31;18304933;32;20306;-57
2023/04/23 13:02:34;;;;;;;;;;;;;;;23.28;48.21;96795.56;18304370;32;20306;-57
2023/04/23 13:12:37;;;;;;;;;;;;;;;23.59;44.12;96792.75;18303951;32;19946;-58
2023/04/23 13:22:40;;;;;;;;;;;;;;;23.20;46.28;96784.81;18303000;32;20307;-57
2023/04/23 13:32:42;;;;;;;;;;;;;;;21.99;49.31;96800.72;18288200;32;19941;-57
2023/04/23 13:42:46;;;;;;;;;;;;;;;21.91;43.72;96765.97;18287769;32;20265;-58
2023/04/23 13:52:49;;;;;;;;;;;;;;;21.98;45.59;96766.06;18275484;32;20039;-58
2023/04/23 14:02:51;;;;;;;;;;;;;;;21.97;48.29;96742.47;18301296;32;19996;-57
2023/04/23 14:12:54;;;;;;;;;;;;;;;21.83;49.88;96745.78;18300688;32;19977;-58
2023/04/23 14:23:01;;;;;;;;;;;;;;;22.15;50.01;96730.94;18299884;32;19957;-57
2023/04/23 14:33:03;;;;;;;;;;;;;;;22.37;43.12;96742.34;18286079;32;19945;-58
2023/04/23 14:43:06;;;;;;;;;;;;;;;22.53;41.66;96739.41;18299223;32;20016;-58
2023/04/23 14:53:16;;;;;;;;;;;;;;;21.87;42.41;96737.59;18298070;32;19968;-58
2023/04/23 15:03:19;;;;;;;;;;;;;;;21.43;38.51;96751.69;18298311;32;19993;-57
2023/04/23 15:13:22;;;;;;;;;;;;;;;20.31;43.12;96755.63;18298118;32;19987;-58
2023/04/23 15:23:25;;;;;;;;;;;;;;;20.05;48.43;96733.41;18297454;32;19956;-58
2023/04/23 15:33:28;;;;;;;;;;;;;;;19.74;50.00;96727.53;18297133;32;19989;-58
2023/04/23 15:43:30;;;;;;;;;;;;;;;19.09;47.88;96722.31;18296186;32;19949;-58
2023/04/23 15:53:32;;;;;;;;;;;;;;;18.57;51.04;96732.16;18282400;32;19945;-58
2023/04/23 16:03:35;;;;;;;;;;;;;;;18.58;57.43;96744.69;18295224;32;19972;-57
2023/04/23 16:13:38;;;;;;;;;;;;;;;19.08;53.67;96739.91;18295159;32;19949;-58
2023/04/23 16:23:41;;;;;;;;;;;;;;;19.23;54.67;96747.37;18294733;32;19950;-58
2023/04/23 16:33:43;;;;;;;;;;;;;;;18.73;54.58;96746.72;18280923;32;19953;-58
2023/04/23 16:43:46;;;;;;;;;;;;;;;18.33;53.35;96746.66;18293938;32;19980;-58
2023/04/23 16:53:48;;;;;;;;;;;;;;;18.08;53.57;96755.66;18294327;32;19964;-58
2023/04/23 17:03:51;;;;;;;;;;;;;;;17.92;53.59;96847.72;18293243;32;19983;-57
2023/04/23 17:13:55;;;;;;;;;;;;;;;16.67;59.75;96859.13;18295482;32;19938;-57
2023/04/23 17:23:58;;;;;;;;;;;;;;;15.21;82.85;96891.53;18303381;32;19972;-57
2023/04/23 17:34:01;;;;;;;;;;;;;;;14.10;100.00;96883.47;18276650;32;19945;-57
2023/04/23 17:44:03;;;;;;;;;;;;;;;13.44;100.00;96867.72;18288132;32;19954;-57
2023/04/23 17:54:06;;;;;;;;;;;;;;;13.01;100.00;96866.25;18302222;32;19975;-57
2023/04/23 18:04:08;;;;;;;;;;;;;;;12.60;100.00;96883.37;18301307;32;19984;-58
2023/04/23 18:14:11;;;;;;;;;;;;;;;12.40;100.00;96890.00;18300962;32;19964;-57
2023/04/23 18:24:13;;;;;;;;;;;;;;;12.14;100.00;96875.06;18300609;32;19949;-58
2023/04/23 18:34:17;;;;;;;;;;;;;;;11.88;100.00;96885.53;18300044;32;19945;-58
2023/04/23 18:44:20;;;;;;;;;;;;;;;11.75;100.00;96935.81;18299312;32;19984;-57
2023/04/23 18:54:24;;;;;;;;;;;;;;;11.75;100.00;96957.50;18285352;32;19942;-57
2023/04/23 19:04:27;;;;;;;;;;;;;;;11.75;100.00;96927.69;18285393;32;20290;-57
2023/04/23 19:14:30;;;;;;;;;;;;;;;11.69;100.00;96932.41;18298140;32;19998;-57
2023/04/23 19:24:33;;;;;;;;;;;;;;;11.50;100.00;96932.41;18297847;32;20005;-58
2023/04/23 19:34:35;;;;;;;;;;;;;;;11.24;100.00;96931.19;18297104;32;19978;-57
2023/04/23 19:44:38;;;;;;;;;;;;;;;11.06;100.00;96930.88;18296052;32;19998;-57
2023/04/23 19:54:42;;;;;;;;;;;;;;;10.84;100.00;96928.75;18282706;32;19968;-57
2023/04/23 20:04:44;;;;;;;;;;;;;;;10.61;100.00;96943.88;18295592;32;19957;-57
2023/04/23 20:14:47;;;;;;;;;;;;;;;10.56;100.00;96946.63;18295310;32;19993;-57
2023/04/23 20:24:49;;;;;;;;;;;;;;;10.64;100.00;96960.31;18281022;32;19957;-57
2023/04/23 20:34:52;;;;;;;;;;;;;;;10.67;100.00;97004.91;18294686;32;20321;-57
2023/04/23 20:44:54;;;;;;;;;;;;;;;10.70;100.00;96982.69;18279768;32;19964;-57
2023/04/23 20:54:56;;;;;;;;;;;;;;;10.82;100.00;96996.63;18289328;32;19945;-57
2023/04/23 21:04:59;;;;;;;;;;;;;;;11.01;100.00;96993.16;18304704;32;20253;-57
2023/04/23 21:15:01;;;;;;;;;;;;;;;10.71;100.00;96968.09;18304136;32;20004;-57
2023/04/23 21:25:04;;;;;;;;;;;;;;;10.48;100.00;96961.56;18303503;32;19949;-57
2023/04/23 21:35:07;;;;;;;;;;;;;;;10.25;100.00;96949.63;18303010;32;19949;-57
2023/04/23 21:45:10;;;;;;;;;;;;;;;10.07;100.00;96949.28;18288416;32;19990;-57
2023/04/23 21:55:12;;;;;;;;;;;;;;;9.87;100.00;96941.31;18302061;32;19942;-57
2023/04/23 22:05:20;;;;;;;;;;;;;;;9.61;100.00;96942.34;18301152;32;19962;-57
2023/04/23 22:15:22;;;;;;;;;;;;;;;9.35;100.00;96941.72;18301452;32;19953;-57
2023/04/23 22:25:24;;;;;;;;;;;;;;;9.35;100.00;96924.75;18300525;32;19950;-57
2023/04/23 22:35:26;;;;;;;;;;;;;;;9.39;100.00;96918.50;18300238;32;19949;-57
2023/04/23 22:45:29;;;;;;;;;;;;;;;9.25;100.00;96914.78;18299487;32;19966;-57
2023/04/23 22:55:31;;;;;;;;;;;;;;;9.10;100.00;96927.31;18299163;32;19958;-57
2023/04/23 23:05:33;;;;;;;;;;;;;;;9.02;100.00;96918.97;18298552;32;20262;-57
2023/04/23 23:15:36;;;;;;;;;;;;;;;9.02;100.00;96914.41;18297526;32;19997;-57
2023/04/23 23:25:38;;;;;;;;;;;;;;;8.91;100.00;96891.28;18297438;32;19984;-57
2023/04/23 23:35:41;;;;;;;;;;;;;;;8.97;100.00;96885.56;18297268;32;20009;-57
2023/04/23 23:45:44;;;;;;;;;;;;;;;8.96;100.00;96886.69;18296500;32;20269;-57
2023/04/23 23:55:46;;;;;;;;;;;;;;;8.97;100.00;96890.97;18296756;32;19964;-57
